Time;durP1;ratioP1;P1;durP2;ratioP2;P2;SDS_P1;SDS_P2;PMS_P1;PMS_P2;Temp;Humidity;BMP_temperature;BMP_pressure;BME280_temperature;BME280_humidity;BME280_pressure;Samples;Min_cycle;Max_cycle;Signal;HPM_P1;HPM_P2
2022/10/16 00:00:56;;;;;;;29.32;15.48;;;;;;;2.98;63.11;102013.63;1770452;80;21285;-61
2022/10/16 00:04:02;;;;;;;26.23;15.20;;;;;;;2.97;63.31;102013.21;1770143;79;21236;-61
2022/10/16 00:07:10;;;;;;;22.77;14.53;;;;;;;2.97;63.42;102018.62;1768496;80;21268;-61
2022/10/16 00:10:16;;;;;;;24.72;14.55;;;;;;;2.98;63.58;102010.91;1770845;79;21229;-61
2022/10/16 00:13:22;;;;;;;23.05;13.80;;;;;;;2.96;63.55;102013.71;1773814;79;21209;-61
2022/10/16 00:16:28;;;;;;;22.10;14.40;;;;;;;2.89;63.39;102004.66;1768445;80;21220;-62
2022/10/16 00:19:34;;;;;;;30.10;14.85;;;;;;;2.82;63.34;102012.24;1760736;79;21204;-61
2022/10/16 00:22:41;;;;;;;26.48;14.95;;;;;;;2.82;63.47;102012.75;1768523;80;21435;-62
2022/10/16 00:25:48;;;;;;;33.98;18.25;;;;;;;2.82;63.65;102010.04;1768639;80;21236;-62
2022/10/16 00:28:57;;;;;;;37.93;19.27;;;;;;;2.80;63.72;102018.71;1768736;80;21229;-61
2022/10/16 00:32:03;;;;;;;30.20;17.12;;;;;;;2.77;63.84;102016.19;1768623;80;21232;-62
2022/10/16 00:35:09;;;;;;;29.95;17.40;;;;;;;2.79;63.94;102015.12;1768432;80;21197;-62
2022/10/16 00:38:15;;;;;;;29.65;16.95;;;;;;;2.79;63.93;102016.48;1761652;79;21245;-61
2022/10/16 00:41:23;;;;;;;31.80;16.97;;;;;;;2.80;64.04;102014.19;1769073;80;21158;-60
2022/10/16 00:44:57;;;;;;;28.23;15.88;;;;;;;2.80;63.96;102018.71;1768484;80;21237;-61
2022/10/16 00:48:04;;;;;;;29.35;16.48;;;;;;;2.77;63.93;102015.72;1770625;79;21503;-61
2022/10/16 00:51:09;;;;;;;27.80;16.40;;;;;;;2.75;63.95;102024.85;1787233;79;21185;-61
2022/10/16 00:54:25;;;;;;;27.27;16.75;;;;;;;2.77;64.11;102022.95;1794776;79;21177;-60
2022/10/16 00:57:30;;;;;;;25.75;14.55;;;;;;;2.78;64.19;102032.79;1780946;79;21276;-61
2022/10/16 01:00:37;;;;;;;28.87;14.90;;;;;;;2.79;64.27;102026.45;1792340;79;21205;-61
2022/10/16 01:03:45;;;;;;;23.57;13.93;;;;;;;2.82;64.34;102035.73;1792803;79;21264;-61
2022/10/16 01:06:54;;;;;;;25.35;13.20;;;;;;;2.83;64.30;102032.05;1779550;80;21212;-61
2022/10/16 01:10:11;;;;;;;22.25;13.88;;;;;;;2.79;64.13;102039.97;1795637;79;21595;-61
2022/10/16 01:13:35;;;;;;;21.17;13.95;;;;;;;2.76;64.13;102029.29;1768293;80;21228;-62
2022/10/16 01:16:54;;;;;;;30.90;18.23;;;;;;;2.74;64.14;102030.73;1769723;79;21244;-61
2022/10/16 01:20:09;;;;;;;21.90;13.40;;;;;;;2.68;64.08;102036.48;1769434;79;21205;-61
2022/10/16 01:23:33;;;;;;;28.27;13.85;;;;;;;2.66;64.08;102034.34;1768724;80;21734;-60
2022/10/16 01:27:17;;;;;;;23.67;14.43;;;;;;;2.58;64.02;102037.09;1768642;80;21193;-62
2022/10/16 01:30:32;;;;;;;24.50;14.23;;;;;;;2.53;64.04;102040.52;1769178;80;21568;-61
2022/10/16 01:33:55;;;;;;;23.30;13.38;;;;;;;2.47;64.09;102040.41;1769464;80;21197;-61
2022/10/16 01:37:06;;;;;;;25.55;13.60;;;;;;;2.45;64.18;102049.53;1771196;79;21976;-61
2022/10/16 01:40:17;;;;;;;19.80;12.95;;;;;;;2.49;64.42;102053.83;1769020;80;21271;-62
2022/10/16 01:43:46;;;;;;;20.25;13.50;;;;;;;2.53;64.62;102058.98;1768512;80;21209;-61
2022/10/16 01:46:55;;;;;;;22.05;13.88;;;;;;;2.54;64.61;102059.36;1768606;80;21277;-61
2022/10/16 01:50:00;;;;;;;21.35;13.35;;;;;;;2.51;64.45;102048.72;1777443;79;21311;-60
2022/10/16 01:53:06;;;;;;;23.38;13.25;;;;;;;2.45;64.29;102057.64;1766832;80;21264;-61
2022/10/16 01:56:15;;;;;;;22.82;13.90;;;;;;;2.38;64.19;102061.64;1738504;82;21201;-62
2022/10/16 01:59:24;;;;;;;26.27;14.10;;;;;;;2.34;64.24;102062.28;1797761;78;21716;-61
2022/10/16 02:02:30;;;;;;;27.07;14.20;;;;;;;2.37;64.50;102068.88;1798168;79;21216;-61
2022/10/16 02:05:53;;;;;;;21.95;13.38;;;;;;;2.37;64.47;102065.28;1758288;80;21201;-62
2022/10/16 02:08:59;;;;;;;21.12;13.32;;;;;;;2.33;64.40;102069.97;1758152;80;21252;-61
2022/10/16 02:12:06;;;;;;;23.73;12.88;;;;;;;2.28;64.36;102068.49;1768882;80;21244;-61
2022/10/16 02:15:12;;;;;;;24.12;14.05;;;;;;;2.25;64.39;102068.16;1769768;79;21217;-61
2022/10/16 02:18:18;;;;;;;21.80;13.15;;;;;;;2.21;64.36;102069.76;1762904;79;21190;-62
2022/10/16 02:21:34;;;;;;;24.23;13.15;;;;;;;2.18;64.34;102072.62;1767987;80;21260;-62
2022/10/16 02:24:46;;;;;;;21.12;13.15;;;;;;;2.17;64.46;102068.19;1756789;80;21761;-62
2022/10/16 02:28:02;;;;;;;19.87;12.95;;;;;;;2.21;64.73;102070.64;1748137;78;21750;-62
2022/10/16 02:31:13;;;;;;;21.00;12.63;;;;;;;2.24;64.85;102070.48;1778519;80;21176;-62
2022/10/16 02:34:18;;;;;;;29.40;19.48;;;;;;;2.30;65.02;102077.40;1817886;77;21267;-62
2022/10/16 02:37:23;;;;;;;20.82;13.03;;;;;;;2.32;65.10;102076.81;1789830;79;21224;-61
2022/10/16 02:40:30;;;;;;;24.10;14.45;;;;;;;2.32;65.11;102076.34;1770797;80;21193;-61
2022/10/16 02:43:36;;;;;;;22.55;13.75;;;;;;;2.36;65.21;102084.66;1792687;78;21744;-60
2022/10/16 02:46:43;;;;;;;21.15;12.33;;;;;;;2.38;65.26;102082.77;1768531;80;21205;-61
2022/10/16 02:49:49;;;;;;;20.50;12.47;;;;;;;2.41;65.26;102083.09;1791780;79;21205;-60
2022/10/16 02:52:55;;;;;;;20.68;12.47;;;;;;;2.41;65.23;102092.55;1789827;79;21180;-61
2022/10/16 02:56:00;;;;;;;23.38;13.90;;;;;;;2.43;65.28;102097.38;1818312;79;21768;-61
2022/10/16 02:59:06;;;;;;;19.73;14.40;;;;;;;2.41;65.26;102089.86;1781227;78;21217;-62
2022/10/16 03:02:12;;;;;;;20.57;13.20;;;;;;;2.40;65.31;102093.48;1760146;80;21213;-61
2022/10/16 03:05:19;;;;;;;20.75;12.85;;;;;;;2.40;65.31;102102.48;1778100;79;21212;-61
2022/10/16 03:08:25;;;;;;;18.95;12.93;;;;;;;2.38;65.26;102104.88;1778378;79;21901;-62
2022/10/16 03:11:30;;;;;;;18.62;12.00;;;;;;;2.36;65.29;102101.37;1770890;80;21169;-61
2022/10/16 03:14:36;;;;;;;20.40;12.40;;;;;;;2.35;65.26;102111.77;1777485;79;21217;-61
2022/10/16 03:17:43;;;;;;;18.87;12.33;;;;;;;2.32;65.23;102112.82;1812263;79;21208;-61
2022/10/16 03:20:49;;;;;;;20.65;12.37;;;;;;;2.28;65.10;102123.88;1779535;79;21201;-62
2022/10/16 03:23:57;;;;;;;16.93;11.90;;;;;;;2.19;64.95;102123.88;1777702;79;21268;-60
2022/10/16 03:27:03;;;;;;;22.32;12.65;;;;;;;2.17;65.04;102126.27;1778973;79;21194;-61
2022/10/16 03:30:10;;;;;;;19.35;12.40;;;;;;;2.17;65.15;102123.56;1785139;79;21152;-61
2022/10/16 03:33:16;;;;;;;17.25;12.23;;;;;;;2.15;65.16;102116.89;1803440;78;21228;-60
2022/10/16 03:36:22;;;;;;;22.70;14.85;;;;;;;2.09;65.04;102114.98;1780227;79;21563;-60
2022/10/16 03:39:29;;;;;;;21.10;14.07;;;;;;;2.04;65.06;102114.34;1771189;79;21205;-61
2022/10/16 03:42:35;;;;;;;21.87;12.35;;;;;;;1.99;65.06;102112.36;1769872;79;21205;-62
2022/10/16 03:45:40;;;;;;;21.42;12.28;;;;;;;2.00;65.16;102118.18;1769584;80;21201;-61
2022/10/16 03:48:47;;;;;;;20.62;12.43;;;;;;;1.98;65.17;102120.95;1768950;80;21248;-61
2022/10/16 03:51:53;;;;;;;20.30;12.28;;;;;;;2.00;65.32;102126.28;1777571;79;21197;-61
2022/10/16 03:55:00;;;;;;;18.60;11.93;;;;;;;1.99;65.41;102122.70;1800298;79;21189;-61
2022/10/16 03:58:05;;;;;;;21.42;12.40;;;;;;;2.00;65.45;102124.42;1801273;78;21209;-61
2022/10/16 04:01:12;;;;;;;25.80;12.30;;;;;;;2.04;65.55;102140.00;1769768;80;21221;-61
2022/10/16 04:04:17;;;;;;;19.23;10.90;;;;;;;2.05;65.61;102140.39;1769612;79;21241;-61
2022/10/16 04:07:23;;;;;;;16.80;10.80;;;;;;;2.06;65.69;102144.86;1769017;80;21186;-61
2022/10/16 04:10:30;;;;;;;24.07;11.93;;;;;;;2.09;65.75;102150.10;1771331;79;21300;-61
2022/10/16 04:13:36;;;;;;;22.07;11.68;;;;;;;2.06;65.69;102141.66;1768972;80;21213;-61
2022/10/16 04:16:43;;;;;;;21.42;11.63;;;;;;;2.05;65.68;102148.50;1768356;80;21178;-62
2022/10/16 04:19:49;;;;;;;21.37;11.83;;;;;;;2.04;65.67;102145.41;1768600;80;21237;-62
2022/10/16 04:22:55;;;;;;;15.55;11.45;;;;;;;2.06;65.82;102152.47;1784184;78;21173;-61
2022/10/16 04:26:02;;;;;;;20.75;11.60;;;;;;;2.10;65.84;102158.59;1793315;79;21173;-61
2022/10/16 04:29:10;;;;;;;18.70;11.40;;;;;;;2.04;65.77;102161.15;1791174;78;21204;-62
2022/10/16 04:32:17;;;;;;;21.57;12.03;;;;;;;2.08;65.92;102157.32;1788332;79;21204;-62
2022/10/16 04:35:24;;;;;;;19.85;12.20;;;;;;;2.06;65.82;102163.27;1779394;80;21181;-61
2022/10/16 04:38:31;;;;;;;19.60;11.95;;;;;;;2.08;65.95;102172.18;1798154;78;21304;-62
2022/10/16 04:41:37;;;;;;;21.82;12.33;;;;;;;2.17;66.12;102168.14;1759098;80;21169;-62
2022/10/16 04:44:45;;;;;;;20.65;11.97;;;;;;;2.23;66.14;102169.17;1738310;81;21292;-61
2022/10/16 04:47:50;;;;;;;21.55;13.00;;;;;;;2.26;66.09;102160.44;1719503;81;21276;-62
2022/10/16 04:50:57;;;;;;;22.60;14.93;;;;;;;2.29;66.07;102175.13;1786477;79;21256;-60
2022/10/16 04:54:04;;;;;;;31.48;16.42;;;;;;;2.31;66.05;102172.35;1782709;78;21252;-61
2022/10/16 04:57:09;;;;;;;30.32;16.65;;;;;;;2.33;66.11;102180.77;1793560;79;21208;-61
2022/10/16 05:00:17;;;;;;;32.70;15.93;;;;;;;2.39;66.20;102184.52;1765563;79;21385;-61
2022/10/16 05:03:23;;;;;;;28.45;15.98;;;;;;;2.44;66.17;102185.63;1767858;80;21253;-61
2022/10/16 05:06:29;;;;;;;26.68;14.47;;;;;;;2.48;66.22;102185.84;1767914;79;21339;-61
2022/10/16 05:09:36;;;;;;;29.35;15.18;;;;;;;2.56;66.28;102187.67;1770453;79;21351;-61
2022/10/16 05:12:42;;;;;;;24.85;14.15;;;;;;;2.66;66.35;102193.00;1787938;79;21193;-62
2022/10/16 05:15:52;;;;;;;23.70;12.85;;;;;;;2.76;66.41;102195.12;1768835;80;21324;-62
2022/10/16 05:19:00;;;;;;;22.65;12.98;;;;;;;2.83;66.38;102201.96;1767784;80;21209;-60
2022/10/16 05:22:09;;;;;;;20.65;11.43;;;;;;;2.91;66.40;102205.59;1718900;82;21192;-62
2022/10/16 05:25:16;;;;;;;23.18;12.40;;;;;;;2.99;66.48;102202.00;1771420;80;21161;-62
2022/10/16 05:28:24;;;;;;;23.80;13.00;;;;;;;3.08;66.50;102216.37;1770262;79;21216;-61
2022/10/16 05:31:31;;;;;;;22.60;12.05;;;;;;;3.18;66.52;102219.45;1770599;79;21229;-61
2022/10/16 05:34:37;;;;;;;20.55;11.83;;;;;;;3.25;66.55;102213.61;1791220;78;21205;-61
2022/10/16 05:37:46;;;;;;;23.60;13.72;;;;;;;3.33;66.56;102226.23;1771849;80;21260;-60
2022/10/16 05:40:53;;;;;;;19.00;11.65;;;;;;;3.39;66.55;102231.34;1768437;79;21186;-62
2022/10/16 05:44:00;;;;;;;25.75;12.47;;;;;;;3.48;66.64;102241.64;1783739;79;21389;-61
2022/10/16 05:47:07;;;;;;;23.25;14.20;;;;;;;3.56;66.70;102233.97;1791310;79;21193;-61
2022/10/16 05:50:15;;;;;;;26.05;13.00;;;;;;;3.66;66.77;102232.50;1772785;79;21332;-62
2022/10/16 05:53:25;;;;;;;23.80;13.10;;;;;;;3.76;66.77;102242.33;1768800;79;21190;-61
2022/10/16 05:56:29;;;;;;;21.33;12.95;;;;;;;3.83;66.73;102243.23;1731426;83;21311;-61
2022/10/16 05:59:36;;;;;;;20.35;11.33;;;;;;;3.90;66.78;102248.69;1709093;84;21371;-60
2022/10/16 06:02:43;;;;;;;18.85;13.08;;;;;;;4.01;66.88;102252.15;1713996;83;21169;-62
2022/10/16 06:05:48;;;;;;;21.73;12.90;;;;;;;4.08;66.79;102248.98;1738177;82;21176;-61
2022/10/16 06:08:55;;;;;;;20.08;12.10;;;;;;;4.13;66.87;102257.73;1730525;83;21161;-63
2022/10/16 06:12:02;;;;;;;19.07;11.68;;;;;;;4.22;67.01;102261.25;1740797;82;21205;-61
2022/10/16 06:15:08;;;;;;;22.55;11.85;;;;;;;4.36;67.15;102257.75;1742415;82;21208;-61
2022/10/16 06:18:14;;;;;;;19.40;12.05;;;;;;;4.47;67.17;102259.34;1709852;84;21268;-61
2022/10/16 06:21:27;;;;;;;19.02;12.35;;;;;;;4.60;67.23;102265.75;1721050;83;21181;-63
2022/10/16 06:24:35;;;;;;;19.82;11.30;;;;;;;4.74;67.28;102259.52;1776671;81;21334;-63
2022/10/16 06:27:41;;;;;;;21.85;12.23;;;;;;;4.84;67.22;102262.92;1775320;81;21185;-61
2022/10/16 06:30:47;;;;;;;22.15;12.47;;;;;;;4.93;67.27;102266.41;1734321;82;21689;-62
2022/10/16 06:34:00;;;;;;;15.68;10.72;;;;;;;5.05;67.33;102261.61;1734960;81;21255;-62
2022/10/16 06:37:06;;;;;;;20.23;11.40;;;;;;;5.17;67.43;102263.55;1734902;82;21153;-60
2022/10/16 06:40:14;;;;;;;21.33;11.57;;;;;;;5.29;67.48;102266.88;1734607;82;21189;-61
2022/10/16 06:43:24;;;;;;;22.32;11.97;;;;;;;5.43;67.51;102268.70;1734269;82;21226;-62
2022/10/16 06:46:32;;;;;;;19.85;10.65;;;;;;;5.53;67.55;102261.25;1742299;82;21192;-61
2022/10/16 06:49:39;;;;;;;17.17;9.90;;;;;;;5.66;67.59;102266.27;1732519;82;21228;-61
2022/10/16 06:52:48;;;;;;;16.60;10.90;;;;;;;5.78;67.61;102261.89;1742120;82;21198;-61
2022/10/16 06:55:55;;;;;;;16.85;10.10;;;;;;;5.89;67.62;102261.63;1769174;78;21205;-60
2022/10/16 06:59:02;;;;;;;16.52;9.60;;;;;;;6.01;67.63;102259.92;1778007;79;21217;-61
2022/10/16 07:02:10;;;;;;;14.78;9.45;;;;;;;6.13;67.68;102259.61;1769243;80;21390;-61
2022/10/16 07:05:16;;;;;;;14.05;9.28;;;;;;;6.25;67.77;102252.86;1768859;81;21907;-60
2022/10/16 07:08:24;;;;;;;14.75;9.55;;;;;;;6.37;67.85;102253.41;1769479;80;21245;-60
2022/10/16 07:11:32;;;;;;;12.40;8.20;;;;;;;6.51;67.87;102253.83;1770187;80;21186;-61
2022/10/16 07:14:39;;;;;;;15.75;8.60;;;;;;;6.64;67.87;102254.74;1768947;80;21240;-60
2022/10/16 07:17:46;;;;;;;14.85;10.25;;;;;;;6.74;67.87;102260.80;1768837;80;21375;-61
2022/10/16 07:20:54;;;;;;;15.48;10.35;;;;;;;6.86;67.89;102257.25;1755383;80;21201;-61
2022/10/16 07:24:06;;;;;;;16.50;10.15;;;;;;;6.97;67.87;102254.65;1729001;82;21452;-62
2022/10/16 07:27:15;;;;;;;17.48;8.73;;;;;;;7.09;67.88;102250.16;1791431;79;21252;-61
2022/10/16 07:30:21;;;;;;;18.10;11.80;;;;;;;7.19;67.84;102252.16;1788386;79;21750;-62
2022/10/16 07:33:29;;;;;;;17.55;9.63;;;;;;;7.29;67.85;102253.22;1750773;81;21257;-61
2022/10/16 07:36:35;;;;;;;11.93;8.75;;;;;;;7.39;67.84;102258.41;1707021;82;21236;-60
2022/10/16 07:39:45;;;;;;;12.98;7.37;;;;;;;7.50;67.85;102259.86;1735521;82;21269;-60
2022/10/16 07:42:54;;;;;;;13.35;8.10;;;;;;;7.60;67.84;102265.05;1730855;82;21185;-61
2022/10/16 07:46:01;;;;;;;13.15;9.23;;;;;;;7.71;67.82;102262.05;1734243;82;21221;-60
2022/10/16 07:49:07;;;;;;;11.15;7.85;;;;;;;7.81;67.84;102269.91;1718646;82;21174;-61
2022/10/16 07:52:13;;;;;;;11.97;7.20;;;;;;;7.91;67.85;102258.72;1710811;82;21346;-61
2022/10/16 07:55:21;;;;;;;11.43;7.45;;;;;;;8.01;67.85;102270.70;1787968;79;21279;-61
2022/10/16 07:58:29;;;;;;;10.75;7.15;;;;;;;8.11;67.84;102265.80;1791087;79;21189;-62
2022/10/16 08:01:35;;;;;;;12.10;7.25;;;;;;;8.22;67.85;102263.62;1776295;79;21334;-61
2022/10/16 08:04:42;;;;;;;10.75;6.67;;;;;;;8.32;67.89;102255.16;1788195;79;21357;-61
2022/10/16 08:07:48;;;;;;;13.22;6.58;;;;;;;8.43;67.88;102261.56;1788739;80;21212;-61
2022/10/16 08:10:55;;;;;;;10.38;6.87;;;;;;;8.54;67.82;102253.91;1788222;80;21166;-63
2022/10/16 08:14:02;;;;;;;8.05;6.00;;;;;;;8.63;67.82;102253.19;1788318;80;21308;-62
2022/10/16 08:17:09;;;;;;;7.78;5.87;;;;;;;8.74;67.80;102250.51;1788221;79;21212;-61
2022/10/16 08:20:17;;;;;;;10.45;6.22;;;;;;;8.82;67.75;102246.69;1788892;80;21149;-62
2022/10/16 08:23:25;;;;;;;11.97;6.00;;;;;;;8.90;67.69;102242.87;1774973;80;21256;-61
2022/10/16 08:26:33;;;;;;;7.97;5.47;;;;;;;8.99;67.67;102235.34;1789823;79;21184;-59
2022/10/16 08:29:39;;;;;;;7.60;4.65;;;;;;;9.07;67.64;102243.29;1788433;79;21377;-61
2022/10/16 08:32:46;;;;;;;7.00;4.97;;;;;;;9.15;67.59;102243.19;1794110;80;21212;-61
2022/10/16 08:36:00;;;;;;;10.80;5.30;;;;;;;9.23;67.54;102247.03;1793904;80;21189;-62
2022/10/16 08:39:08;;;;;;;9.63;5.67;;;;;;;9.30;67.53;102241.47;1793787;80;21192;-61
2022/10/16 08:42:29;;;;;;;10.55;4.83;;;;;;;9.38;67.50;102244.95;1785570;80;21212;-62
2022/10/16 08:46:05;;;;;;;8.80;4.80;;;;;;;9.49;67.52;102250.42;1793435;80;21318;-62
2022/10/16 08:49:14;;;;;;;8.78;4.97;;;;;;;9.58;67.43;102251.04;1790874;80;21243;-63
2022/10/16 08:52:21;;;;;;;9.10;4.22;;;;;;;9.65;67.40;102251.81;1788904;80;21343;-62
2022/10/16 08:55:59;;;;;;;8.33;4.80;;;;;;;9.74;67.34;102257.89;1772332;81;21231;-61
2022/10/16 08:59:06;;;;;;;7.70;4.35;;;;;;;9.80;67.28;102256.02;1747490;79;21204;-61
2022/10/16 09:02:30;;;;;;;8.10;3.92;;;;;;;9.86;67.19;102255.51;1738308;82;21193;-63
2022/10/16 09:06:21;;;;;;;7.08;3.58;;;;;;;9.92;67.15;102260.50;1732108;81;21197;-60
2022/10/16 09:09:54;;;;;;;6.83;4.40;;;;;;;10.00;67.09;102258.50;1757780;80;21189;-63
2022/10/16 09:13:15;;;;;;;;;;;;;;;10.10;67.11;102253.52;1773175;80;21686;-60
2022/10/16 09:16:42;;;;;;;5.83;4.25;;;;;;;10.20;67.06;102251.77;1768064;80;20637;-62
2022/10/16 09:19:56;;;;;;;5.70;4.08;;;;;;;10.28;66.99;102243.80;1733461;82;21741;-61
2022/10/16 09:23:40;;;;;;;5.53;4.28;;;;;;;10.35;66.93;102240.89;1802748;78;21217;-62
2022/10/16 09:26:48;;;;;;;5.70;4.12;;;;;;;10.41;66.85;102236.30;1806387;79;21193;-62
2022/10/16 09:29:54;;;;;;;6.90;4.30;;;;;;;10.48;66.74;102238.86;1799578;79;21339;-63
2022/10/16 09:33:02;;;;;;;7.45;4.75;;;;;;;10.54;66.72;102235.59;1806448;78;21220;-63
2022/10/16 09:36:12;;;;;;;7.12;5.00;;;;;;;10.64;66.74;102240.31;1806373;79;21216;-62
2022/10/16 09:39:19;;;;;;;7.30;4.30;;;;;;;10.74;66.70;102242.12;1742658;81;21236;-60
2022/10/16 09:42:38;;;;;;;8.65;3.98;;;;;;;10.85;66.69;102242.55;1806420;79;21188;-61
2022/10/16 09:45:45;;;;;;;6.05;4.40;;;;;;;10.96;66.64;102243.86;1806281;79;21184;-62
2022/10/16 09:48:55;;;;;;;8.55;4.37;;;;;;;11.07;66.60;102234.24;1804152;79;21244;-61
2022/10/16 09:52:13;;;;;;;6.67;4.10;;;;;;;11.16;66.46;102232.90;1788143;79;21165;-61
2022/10/16 09:55:26;;;;;;;7.20;4.55;;;;;;;11.23;66.33;102226.37;1766809;81;21189;-61
2022/10/16 09:58:33;;;;;;;5.97;4.50;;;;;;;11.31;66.31;102221.97;1739072;80;21260;-61
2022/10/16 10:01:53;;;;;;;13.03;4.67;;;;;;;11.40;66.29;102221.67;1736531;82;21169;-61
2022/10/16 10:05:00;;;;;;;8.33;5.22;;;;;;;11.49;66.24;102225.83;1737045;81;21662;-62
2022/10/16 10:08:08;;;;;;;11.28;5.30;;;;;;;11.58;66.13;102231.86;1696017;83;21349;-62
2022/10/16 10:11:14;;;;;;;6.35;4.70;;;;;;;11.66;66.07;102213.36;1721442;83;21190;-62
2022/10/16 10:14:46;;;;;;;9.50;5.58;;;;;;;11.77;66.04;102210.52;1725100;83;21229;-62
2022/10/16 10:17:55;;;;;;;9.38;5.15;;;;;;;11.86;65.93;102200.94;1725594;82;21213;-62
2022/10/16 10:21:10;;;;;;;17.57;6.08;;;;;;;12.00;65.90;102194.20;1701307;82;21237;-61
2022/10/16 10:24:22;;;;;;;10.88;5.62;;;;;;;12.11;65.86;102200.06;1696366;83;21244;-62
2022/10/16 10:27:28;;;;;;;8.85;5.20;;;;;;;12.20;65.77;102201.95;1696145;84;21229;-62
2022/10/16 10:30:58;;;;;;;12.37;5.28;;;;;;;12.27;65.76;102205.39;1696319;84;21285;-62
2022/10/16 10:34:48;;;;;;;10.58;5.90;;;;;;;12.36;65.67;102201.78;1702410;83;21237;-63
2022/10/16 10:38:30;;;;;;;8.08;5.22;;;;;;;12.48;65.65;102195.13;1695881;83;21221;-61
2022/10/16 10:42:02;;;;;;;7.92;5.17;;;;;;;12.62;65.55;102195.21;1693980;84;21221;-62
2022/10/16 10:45:34;;;;;;;8.18;5.33;;;;;;;12.72;65.47;102191.94;1696849;82;21295;-61
2022/10/16 10:49:02;;;;;;;;;;;;;;;12.84;65.47;102183.91;1699048;83;21248;-62
2022/10/16 10:52:31;;;;;;;9.80;5.22;;;;;;;12.95;65.43;102176.88;1684677;84;20217;-61
2022/10/16 10:55:51;;;;;;;10.68;5.37;;;;;;;13.00;65.22;102176.81;1767318;81;21335;-61
2022/10/16 10:59:29;;;;;;;9.00;5.17;;;;;;;13.09;65.24;102175.06;1729155;81;21229;-60
2022/10/16 11:02:56;;;;;;;6.97;4.67;;;;;;;13.22;65.25;102179.74;1727262;82;21316;-61
2022/10/16 11:06:29;;;;;;;6.08;4.30;;;;;;;13.31;65.17;102170.58;1726877;82;21210;-61
2022/10/16 11:09:46;;;;;;;8.25;4.58;;;;;;;13.38;64.95;102169.83;1726277;82;21734;-62
2022/10/16 11:13:00;;;;;;;7.42;4.30;;;;;;;13.45;64.75;102161.34;1726010;82;21206;-61
2022/10/16 11:16:14;;;;;;;9.78;4.10;;;;;;;13.50;64.66;102159.01;1726388;82;21214;-62
2022/10/16 11:19:33;;;;;;;6.72;4.10;;;;;;;13.62;64.66;102160.19;1724700;83;21288;-62
2022/10/16 11:23:01;;;;;;;7.92;3.95;;;;;;;13.75;64.70;102151.07;1724795;83;21166;-62
2022/10/16 11:26:13;;;;;;;8.20;4.17;;;;;;;13.88;64.53;102144.66;1725927;81;21722;-63
2022/10/16 11:29:34;;;;;;;9.70;4.10;;;;;;;13.96;64.36;102146.14;1720542;81;21221;-62
2022/10/16 11:33:01;;;;;;;8.18;4.20;;;;;;;14.03;64.31;102140.38;1723862;83;21281;-61
2022/10/16 11:36:37;;;;;;;8.93;4.60;;;;;;;14.15;64.43;102141.38;1725956;81;21730;-62
2022/10/16 11:39:43;;;;;;;10.95;4.92;;;;;;;14.28;64.22;102132.25;1713920;82;21378;-62
2022/10/16 11:42:54;;;;;;;7.58;4.30;;;;;;;14.39;64.03;102131.14;1760368;81;21205;-63
2022/10/16 11:46:06;;;;;;;5.85;3.70;;;;;;;14.47;63.86;102137.60;1768666;80;21174;-63
2022/10/16 11:49:30;;;;;;;8.68;4.10;;;;;;;14.55;63.71;102125.78;1767636;80;21257;-61
2022/10/16 11:52:46;;;;;;;6.75;3.72;;;;;;;14.67;63.70;102127.25;1767625;80;21205;-60
2022/10/16 11:55:53;;;;;;;7.17;3.65;;;;;;;14.74;63.47;102143.52;1759431;80;21176;-62
2022/10/16 11:59:12;;;;;;;6.90;3.87;;;;;;;14.83;63.46;102139.78;1772939;80;21192;-61
2022/10/16 12:02:42;;;;;;;7.53;3.83;;;;;;;14.91;63.24;102135.71;1767735;79;21181;-61
2022/10/16 12:06:18;;;;;;;8.05;3.75;;;;;;;14.92;62.96;102130.03;1775101;79;22028;-61
2022/10/16 12:09:31;;;;;;;5.78;3.45;;;;;;;14.94;62.72;102133.50;1765889;80;21198;-61
2022/10/16 12:12:46;;;;;;;8.58;3.67;;;;;;;14.88;62.59;102134.16;1782806;80;21211;-62
2022/10/16 12:15:52;;;;;;;7.15;3.70;;;;;;;14.90;62.59;102140.89;1783054;80;21187;-62
2022/10/16 12:19:10;;;;;;;5.00;3.75;;;;;;;14.92;62.51;102145.73;1778976;78;21232;-59
2022/10/16 12:22:22;;;;;;;8.50;4.15;;;;;;;14.97;62.50;102141.95;1764532;81;21197;-61
2022/10/16 12:25:39;;;;;;;5.62;3.87;;;;;;;14.99;62.45;102133.89;1695551;82;21204;-63
2022/10/16 12:28:51;;;;;;;8.35;4.05;;;;;;;15.06;62.29;102133.23;1757956;79;21204;-62
2022/10/16 12:31:55;;;;;;;6.17;3.30;;;;;;;15.08;62.24;102132.56;1771161;79;21181;-61
2022/10/16 12:35:01;;;;;;;5.92;3.47;;;;;;;15.14;62.24;102127.77;1769079;79;21224;-62
2022/10/16 12:38:27;;;;;;;4.58;2.85;;;;;;;15.15;62.04;102122.09;1782742;79;21757;-63
2022/10/16 12:41:40;;;;;;;4.42;3.22;;;;;;;15.12;61.87;102116.90;1783273;79;21251;-61
2022/10/16 12:44:49;;;;;;;5.58;2.90;;;;;;;15.14;61.80;102121.75;1772260;80;21257;-62
2022/10/16 12:47:58;;;;;;;4.80;2.92;;;;;;;15.21;61.79;102126.07;1765596;79;21694;-63
2022/10/16 12:51:26;;;;;;;6.92;3.25;;;;;;;15.26;61.76;102134.23;1767518;79;21222;-63
2022/10/16 12:54:46;;;;;;;7.35;3.60;;;;;;;15.31;61.76;102133.73;1766730;79;21703;-61
2022/10/16 12:58:11;;;;;;;6.83;3.67;;;;;;;15.27;61.49;102133.19;1766772;80;21699;-59
2022/10/16 13:01:35;;;;;;;6.37;3.83;;;;;;;15.25;61.33;102139.41;1731882;82;21185;-61
2022/10/16 13:05:01;;;;;;;5.12;3.60;;;;;;;15.23;61.20;102135.94;1772643;81;21197;-61
2022/10/16 13:08:28;;;;;;;7.80;4.10;;;;;;;15.25;61.13;102145.43;1766733;81;21347;-61
2022/10/16 13:11:57;;;;;;;9.40;3.77;;;;;;;15.31;61.20;102141.50;1740794;82;21283;-64
2022/10/16 13:15:35;;;;;;;6.20;3.75;;;;;;;15.29;61.00;102139.41;1775446;81;21223;-61
2022/10/16 13:18:53;;;;;;;;;;;;;;;15.29;61.04;102141.30;1778253;81;21760;-62
2022/10/16 13:22:12;;;;;;;10.08;3.20;;;;;;;15.29;60.84;102150.45;1775414;81;20239;-62
2022/10/16 13:25:41;;;;;;;7.40;3.55;;;;;;;15.31;60.92;102151.16;1768091;81;21213;-62
2022/10/16 13:28:47;;;;;;;8.15;4.03;;;;;;;15.32;60.83;102157.02;1775598;81;21267;-62
2022/10/16 13:31:54;;;;;;;12.88;4.37;;;;;;;15.33;60.74;102156.52;1774950;81;21221;-61
2022/10/16 13:35:00;;;;;;;9.03;4.37;;;;;;;15.27;60.36;102155.27;1766681;81;21220;-62
2022/10/16 13:38:27;;;;;;;6.87;3.47;;;;;;;15.20;60.17;102161.10;1768281;80;21276;-61
2022/10/16 13:41:34;;;;;;;9.90;4.00;;;;;;;15.13;59.99;102161.38;1761376;80;21766;-61
2022/10/16 13:44:50;;;;;;;7.47;4.15;;;;;;;15.09;60.01;102169.65;1735704;82;21873;-61
2022/10/16 13:47:57;;;;;;;9.83;4.12;;;;;;;15.06;59.88;102174.11;1738108;81;21247;-61
2022/10/16 13:51:23;;;;;;;8.53;4.03;;;;;;;15.00;59.74;102171.97;1751368;81;22085;-62
2022/10/16 13:54:30;;;;;;;9.68;4.05;;;;;;;14.93;59.59;102169.52;1765399;80;21211;-62
2022/10/16 13:57:36;;;;;;;8.50;4.17;;;;;;;14.84;59.49;102163.59;1750364;81;21232;-61
2022/10/16 14:00:42;;;;;;;6.53;3.85;;;;;;;14.73;59.36;102168.83;1774864;81;21194;-61
2022/10/16 14:03:49;;;;;;;9.70;3.83;;;;;;;14.64;59.35;102175.31;1767943;78;21193;-62
2022/10/16 14:06:58;;;;;;;11.55;4.00;;;;;;;14.55;59.29;102183.16;1772757;79;21203;-61
2022/10/16 14:10:08;;;;;;;9.65;4.15;;;;;;;14.47;59.20;102187.71;1707534;82;21224;-61
2022/10/16 14:13:14;;;;;;;7.12;3.67;;;;;;;14.33;59.11;102193.27;1685897;82;21242;-62
2022/10/16 14:16:35;;;;;;;7.67;3.87;;;;;;;14.23;59.09;102192.42;1670634;83;21211;-61
2022/10/16 14:19:41;;;;;;;7.20;4.20;;;;;;;14.12;58.97;102191.77;1706476;82;21797;-61
2022/10/16 14:22:45;;;;;;;10.43;4.70;;;;;;;13.98;58.92;102190.42;1767110;81;21192;-61
2022/10/16 14:25:51;;;;;;;9.78;3.95;;;;;;;13.83;58.85;102189.19;1767942;80;21196;-60
2022/10/16 14:29:10;;;;;;;9.70;4.90;;;;;;;13.70;58.78;102180.94;1767077;81;21911;-63
2022/10/16 14:32:24;;;;;;;8.35;4.65;;;;;;;13.52;58.60;102194.09;1751579;81;21590;-61
2022/10/16 14:35:43;;;;;;;12.15;5.20;;;;;;;13.31;58.43;102196.22;1768029;81;21193;-61
2022/10/16 14:38:56;;;;;;;11.93;4.75;;;;;;;13.11;58.23;102186.27;1768058;81;21390;-61
2022/10/16 14:42:05;;;;;;;14.47;5.85;;;;;;;12.87;58.09;102179.49;1768530;81;21188;-62
2022/10/16 14:45:16;;;;;;;9.08;5.60;;;;;;;12.61;57.98;102165.98;1756227;81;21220;-61
2022/10/16 14:48:25;;;;;;;11.88;5.28;;;;;;;12.38;58.00;102169.55;1779960;79;21189;-62